createdAt,value
2023-07-19T00:02:06.152Z,13.88
2023-07-19T00:04:33.867Z,8.30
2023-07-19T00:07:01.220Z,12.43
2023-07-19T00:09:28.884Z,10.98
2023-07-19T00:11:56.298Z,15.77
2023-07-19T00:14:23.930Z,13.43
2023-07-19T00:16:51.619Z,20.42
2023-07-19T00:19:21.127Z,16.83
2023-07-19T00:21:49.001Z,12.02
2023-07-19T00:24:17.098Z,15.95
2023-07-19T00:26:44.688Z,13.88
2023-07-19T00:29:12.270Z,15.35
2023-07-19T00:31:39.713Z,12.95
2023-07-19T00:34:07.796Z,13.57
2023-07-19T00:36:35.239Z,16.58
2023-07-19T00:39:04.288Z,15.63
2023-07-19T00:41:31.640Z,12.85
2023-07-19T00:43:59.747Z,13.60
2023-07-19T00:46:28.562Z,16.23
2023-07-19T00:48:57.761Z,15.50
2023-07-19T00:51:25.310Z,17.02
2023-07-19T00:53:53.977Z,21.45
2023-07-19T00:56:22.111Z,17.73
2023-07-19T00:58:53.569Z,15.23
2023-07-19T01:01:24.664Z,14.07
2023-07-19T01:03:52.894Z,14.13
2023-07-19T01:06:20.873Z,15.55
2023-07-19T01:08:50.088Z,15.45
2023-07-19T01:11:17.533Z,14.93
2023-07-19T01:13:55.242Z,15.50
2023-07-19T01:16:23.333Z,18.83
2023-07-19T01:18:51.208Z,13.13
2023-07-19T01:21:23.876Z,10.10
2023-07-19T01:23:52.243Z,14.25
2023-07-19T01:26:19.886Z,15.65
2023-07-19T01:28:47.502Z,17.40
2023-07-19T01:31:19.395Z,9.63
2023-07-19T01:33:47.515Z,10.75
2023-07-19T01:36:14.897Z,12.68
2023-07-19T01:38:42.554Z,11.13
2023-07-19T01:41:09.980Z,12.77
2023-07-19T01:43:37.607Z,15.43
2023-07-19T01:46:05.096Z,10.07
2023-07-19T01:48:34.025Z,15.48
2023-07-19T01:51:03.562Z,12.35
2023-07-19T01:53:31.234Z,12.27
2023-07-19T01:55:58.560Z,15.07
2023-07-19T01:58:26.161Z,13.38
2023-07-19T02:00:54.886Z,8.25
2023-07-19T02:03:22.952Z,11.82
2023-07-19T02:05:59.984Z,12.23
2023-07-19T02:08:27.687Z,13.13
2023-07-19T02:10:57.737Z,9.48
2023-07-19T02:13:25.373Z,11.18
2023-07-19T02:15:52.790Z,9.30
2023-07-19T02:18:23.186Z,12.93
2023-07-19T02:20:54.739Z,11.85
2023-07-19T02:23:22.877Z,9.18
2023-07-19T02:25:50.610Z,11.80
2023-07-19T02:28:18.709Z,11.20
2023-07-19T02:30:46.626Z,10.30
2023-07-19T02:33:15.177Z,9.45
2023-07-19T02:35:42.949Z,11.43
2023-07-19T02:38:11.346Z,9.55
2023-07-19T02:40:38.921Z,8.73
2023-07-19T02:43:06.514Z,11.40
2023-07-19T02:45:37.052Z,8.07
2023-07-19T02:48:05.025Z,10.20
2023-07-19T02:50:32.612Z,9.48
2023-07-19T02:53:00.272Z,11.68
2023-07-19T02:55:27.638Z,8.60
2023-07-19T02:57:55.279Z,9.85
2023-07-19T03:00:22.615Z,8.40
2023-07-19T03:02:55.507Z,9.85
2023-07-19T03:05:24.142Z,7.50
2023-07-19T03:07:52.253Z,9.30
2023-07-19T03:10:19.610Z,8.63
2023-07-19T03:12:47.245Z,11.73
2023-07-19T03:15:14.805Z,8.25
2023-07-19T03:17:42.451Z,10.55
2023-07-19T03:20:11.309Z,8.18
2023-07-19T03:22:39.011Z,8.65
2023-07-19T03:25:07.080Z,11.65
2023-07-19T03:27:34.755Z,11.25
2023-07-19T03:30:02.542Z,8.05
2023-07-19T03:32:31.017Z,11.32
2023-07-19T03:34:58.448Z,14.43
2023-07-19T03:37:26.124Z,7.82
2023-07-19T03:39:53.482Z,7.53
2023-07-19T03:42:21.101Z,7.63
2023-07-19T03:44:48.489Z,10.23
2023-07-19T03:47:16.143Z,7.55
2023-07-19T03:49:44.271Z,9.85
2023-07-19T03:52:12.253Z,6.57
2023-07-19T03:54:39.608Z,7.95
2023-07-19T03:57:07.470Z,7.05
2023-07-19T03:59:34.819Z,8.70
2023-07-19T04:02:02.507Z,10.68
2023-07-19T04:04:30.694Z,7.60
2023-07-19T04:06:58.403Z,7.53
2023-07-19T04:09:25.784Z,8.80
2023-07-19T04:11:53.417Z,9.07
2023-07-19T04:14:20.856Z,9.68
2023-07-19T04:16:48.485Z,8.45
2023-07-19T04:19:15.935Z,10.55
2023-07-19T04:21:43.555Z,11.52
2023-07-19T04:24:10.906Z,8.02
2023-07-19T04:26:38.658Z,8.02
2023-07-19T04:29:06.004Z,9.63
2023-07-19T04:31:33.655Z,14.52
2023-07-19T04:34:01.197Z,10.40
2023-07-19T04:36:28.941Z,9.85
2023-07-19T04:38:56.296Z,9.50
2023-07-19T04:41:24.119Z,12.50
2023-07-19T04:43:52.429Z,9.65
2023-07-19T04:46:21.486Z,7.75
2023-07-19T04:48:49.205Z,10.35
2023-07-19T04:51:16.905Z,10.85
2023-07-19T04:53:44.262Z,10.60
2023-07-19T04:56:11.886Z,12.15
2023-07-19T04:58:39.293Z,9.32
2023-07-19T05:01:07.048Z,12.93
2023-07-19T05:03:34.845Z,7.63
2023-07-19T05:06:03.062Z,14.38
2023-07-19T05:08:30.435Z,10.25
2023-07-19T05:10:58.068Z,11.23
2023-07-19T05:13:25.454Z,9.93
2023-07-19T05:15:53.092Z,7.40
2023-07-19T05:18:20.440Z,8.30
2023-07-19T05:20:48.143Z,12.57
2023-07-19T05:23:16.010Z,10.35
2023-07-19T05:25:43.674Z,9.25
2023-07-19T05:28:11.010Z,9.23
2023-07-19T05:30:38.804Z,9.07
2023-07-19T05:33:06.265Z,8.45
2023-07-19T05:35:34.167Z,10.75
2023-07-19T05:38:01.551Z,10.88
2023-07-19T05:40:29.277Z,7.90
2023-07-19T05:42:57.308Z,8.52
2023-07-19T05:45:24.966Z,8.93
2023-07-19T05:47:52.444Z,7.47
2023-07-19T05:50:20.172Z,9.40
2023-07-19T05:52:48.106Z,11.68
2023-07-19T05:55:16.788Z,10.20
2023-07-19T05:57:44.111Z,7.72
2023-07-19T06:00:23.676Z,8.60
2023-07-19T06:02:55.438Z,8.93
2023-07-19T06:05:25.887Z,6.28
2023-07-19T06:07:53.658Z,7.88
2023-07-19T06:10:21.380Z,6.47
2023-07-19T06:12:49.186Z,6.32
2023-07-19T06:15:17.047Z,10.05
2023-07-19T06:17:44.871Z,7.57
2023-07-19T06:20:12.722Z,7.72
2023-07-19T06:22:40.390Z,6.95
2023-07-19T06:25:08.467Z,9.23
2023-07-19T06:27:35.849Z,8.50
2023-07-19T06:30:04.400Z,7.20
2023-07-19T06:32:31.863Z,8.02
2023-07-19T06:34:59.487Z,5.70
2023-07-19T06:37:26.848Z,6.57
2023-07-19T06:39:54.501Z,5.95
2023-07-19T06:42:21.942Z,6.47
2023-07-19T06:44:49.672Z,7.60
2023-07-19T06:47:17.025Z,9.00
2023-07-19T06:49:45.773Z,6.93
2023-07-19T06:52:13.223Z,7.85
2023-07-19T06:54:40.893Z,5.95
2023-07-19T06:57:08.241Z,5.38
2023-07-19T06:59:36.380Z,5.50
2023-07-19T07:02:03.814Z,6.72
2023-07-19T07:04:31.435Z,6.20
2023-07-19T07:06:58.912Z,6.43
2023-07-19T07:09:26.918Z,11.77
2023-07-19T07:11:54.292Z,7.68
2023-07-19T07:14:21.963Z,8.00
2023-07-19T07:16:49.356Z,6.00
2023-07-19T07:19:16.724Z,6.82
2023-07-19T07:21:44.335Z,6.22
2023-07-19T07:24:11.673Z,5.68
2023-07-19T07:26:39.260Z,7.20
2023-07-19T07:29:06.672Z,7.75
2023-07-19T07:31:34.403Z,9.18
2023-07-19T07:34:01.860Z,7.20
2023-07-19T07:36:29.535Z,5.50
2023-07-19T07:38:56.948Z,8.70
2023-07-19T07:41:24.722Z,6.85
2023-07-19T07:43:52.278Z,6.40
2023-07-19T07:46:20.047Z,11.75
2023-07-19T07:48:47.428Z,6.80
2023-07-19T07:51:15.070Z,7.15
2023-07-19T07:53:42.494Z,7.55
2023-07-19T07:56:10.116Z,12.43
2023-07-19T07:58:37.497Z,8.75
2023-07-19T08:01:05.150Z,9.40
2023-07-19T08:03:32.755Z,7.30
2023-07-19T08:06:00.549Z,9.77
2023-07-19T08:08:27.947Z,7.95
2023-07-19T08:10:55.573Z,10.45
2023-07-19T08:13:22.998Z,7.45
2023-07-19T08:15:50.869Z,9.25
2023-07-19T08:18:18.237Z,8.98
2023-07-19T08:20:45.866Z,10.98
2023-07-19T08:23:13.308Z,8.50
2023-07-19T08:25:42.263Z,8.27
2023-07-19T08:28:09.679Z,10.50
2023-07-19T08:30:37.333Z,13.40
2023-07-19T08:33:09.487Z,11.32
2023-07-19T08:35:37.239Z,9.15
2023-07-19T08:38:04.651Z,7.55
2023-07-19T08:40:34.996Z,8.75
2023-07-19T08:43:07.332Z,7.78
2023-07-19T08:45:39.824Z,8.10
2023-07-19T08:48:08.534Z,7.10
2023-07-19T08:50:37.363Z,8.35
2023-07-19T08:53:05.716Z,7.40
2023-07-19T08:55:33.475Z,9.10
2023-07-19T08:58:01.128Z,8.15
2023-07-19T09:00:31.547Z,8.38
2023-07-19T09:02:59.007Z,9.40
2023-07-19T09:05:31.947Z,9.75
2023-07-19T09:08:03.722Z,7.47
2023-07-19T09:10:32.086Z,7.70
2023-07-19T09:12:59.541Z,10.95
2023-07-19T09:15:28.952Z,5.93
2023-07-19T09:17:56.660Z,8.68
2023-07-19T09:20:28.529Z,8.10
2023-07-19T09:22:58.757Z,12.82
2023-07-19T09:25:26.734Z,9.73
2023-07-19T09:27:54.810Z,7.93
2023-07-19T09:30:22.543Z,8.85
2023-07-19T09:33:01.135Z,9.07
2023-07-19T09:35:30.076Z,7.97
2023-07-19T09:37:59.804Z,8.20
2023-07-19T09:40:27.662Z,8.05
2023-07-19T09:42:56.611Z,8.57
2023-07-19T09:45:26.663Z,7.82
2023-07-19T09:47:55.193Z,10.10
2023-07-19T09:50:24.307Z,10.50
2023-07-19T09:52:53.118Z,7.93
2023-07-19T09:55:21.667Z,7.47
2023-07-19T09:57:50.370Z,8.85
2023-07-19T10:00:18.282Z,9.18
2023-07-19T10:02:46.619Z,8.65
2023-07-19T10:05:15.388Z,6.95
2023-07-19T10:07:51.463Z,8.60
2023-07-19T10:10:21.357Z,8.02
2023-07-19T10:12:50.133Z,6.78
2023-07-19T10:15:21.930Z,9.95
2023-07-19T10:18:00.713Z,8.38
2023-07-19T10:20:34.261Z,8.10
2023-07-19T10:23:04.514Z,9.90
2023-07-19T10:25:49.444Z,9.70
2023-07-19T10:28:31.530Z,12.93
2023-07-19T10:31:17.363Z,7.72
2023-07-19T10:33:48.634Z,8.07
2023-07-19T10:36:16.288Z,8.32
2023-07-19T10:38:44.087Z,7.43
2023-07-19T10:41:13.610Z,8.68
2023-07-19T10:43:46.974Z,7.43
2023-07-19T10:48:43.536Z,8.88
2023-07-19T10:51:11.785Z,9.10
2023-07-19T10:54:00.511Z,9.27
2023-07-19T10:56:29.259Z,7.63
2023-07-19T10:59:00.616Z,9.00
2023-07-19T11:01:30.711Z,7.18
2023-07-19T11:04:05.908Z,9.00
2023-07-19T11:06:57.949Z,9.13
2023-07-19T11:09:26.630Z,7.70
2023-07-19T11:11:54.617Z,6.55
2023-07-19T11:14:32.717Z,8.38
2023-07-19T11:17:01.179Z,6.57
2023-07-19T11:19:40.088Z,9.20
2023-07-19T11:22:09.120Z,7.85
2023-07-19T11:24:38.925Z,6.80
2023-07-19T11:27:07.714Z,6.88
2023-07-19T11:29:35.953Z,7.70
2023-07-19T11:32:21.746Z,6.40
2023-07-19T11:34:52.296Z,11.63
2023-07-19T11:37:27.451Z,7.57
2023-07-19T11:40:00.487Z,7.95
2023-07-19T11:42:48.576Z,9.70
2023-07-19T11:45:18.700Z,7.88
2023-07-19T11:47:49.016Z,7.55
2023-07-19T11:50:16.792Z,11.15
2023-07-19T11:52:55.336Z,9.95
2023-07-19T11:55:23.757Z,13.02
2023-07-19T11:57:53.038Z,14.77
2023-07-19T12:00:24.814Z,26.98
2023-07-19T12:02:53.325Z,15.02
2023-07-19T12:05:23.396Z,14.13
2023-07-19T12:07:51.866Z,14.85
2023-07-19T12:10:21.338Z,14.55
2023-07-19T12:12:49.740Z,8.88
2023-07-19T12:15:18.266Z,10.50
2023-07-19T12:17:46.453Z,11.52
2023-07-19T12:20:13.855Z,9.93
2023-07-19T12:22:43.572Z,11.65
2023-07-19T12:25:11.575Z,8.77
2023-07-19T12:27:39.945Z,12.68
2023-07-19T12:30:08.113Z,7.95
2023-07-19T12:32:35.842Z,9.88
2023-07-19T12:35:03.851Z,9.60
2023-07-19T12:37:31.606Z,9.65
2023-07-19T12:39:59.102Z,9.48
2023-07-19T12:42:29.092Z,9.68
2023-07-19T12:44:56.434Z,6.93
2023-07-19T12:47:24.109Z,8.00
2023-07-19T12:49:51.449Z,7.50
2023-07-19T12:52:20.991Z,9.20
2023-07-19T12:54:48.420Z,7.45
2023-07-19T12:57:16.035Z,7.32
2023-07-19T12:59:43.571Z,8.95
2023-07-19T13:02:11.280Z,8.45
2023-07-19T13:04:38.731Z,8.80
2023-07-19T13:07:06.820Z,7.57
2023-07-19T13:09:34.712Z,9.63
2023-07-19T13:12:02.552Z,8.13
2023-07-19T13:14:29.883Z,8.18
2023-07-19T13:17:15.532Z,9.40
2023-07-19T13:19:46.368Z,8.00
2023-07-19T13:22:14.075Z,8.00
2023-07-19T13:24:41.416Z,6.70
2023-07-19T13:27:09.095Z,6.47
2023-07-19T13:29:38.110Z,8.82
2023-07-19T13:32:07.326Z,6.35
2023-07-19T13:34:36.147Z,6.20
2023-07-19T13:37:06.286Z,7.35
2023-07-19T13:39:36.038Z,6.35
2023-07-19T13:42:05.196Z,11.07
2023-07-19T13:44:33.079Z,6.07
2023-07-19T13:47:01.877Z,6.20
2023-07-19T13:49:29.417Z,5.13
2023-07-19T13:51:57.249Z,5.20
2023-07-19T13:54:24.968Z,6.07
2023-07-19T13:56:52.644Z,6.47
2023-07-19T13:59:19.966Z,4.90
2023-07-19T14:01:48.885Z,6.55
2023-07-19T14:04:16.412Z,6.05
2023-07-19T14:06:44.232Z,5.72
2023-07-19T14:09:11.670Z,6.43
2023-07-19T14:11:39.501Z,6.40
2023-07-19T14:14:06.833Z,6.53
2023-07-19T14:16:34.772Z,6.82
2023-07-19T14:19:02.732Z,5.65
2023-07-19T14:21:30.329Z,6.75
2023-07-19T14:23:57.668Z,7.72
2023-07-19T14:26:25.547Z,6.55
2023-07-19T14:28:53.306Z,4.65
2023-07-19T14:31:22.745Z,6.25
2023-07-19T14:33:50.338Z,5.60
2023-07-19T14:36:18.019Z,6.53
2023-07-19T14:38:45.362Z,5.70
2023-07-19T14:41:13.364Z,5.85
2023-07-19T14:43:42.754Z,5.78
2023-07-19T14:46:10.389Z,8.93
2023-07-19T14:48:37.809Z,7.60
2023-07-19T14:51:06.745Z,5.93
2023-07-19T14:53:34.526Z,5.78
2023-07-19T14:56:02.147Z,5.22
2023-07-19T14:58:29.500Z,4.85
2023-07-19T15:00:57.612Z,4.45
2023-07-19T15:05:57.313Z,4.43
2023-07-19T15:08:24.698Z,5.57
2023-07-19T15:10:52.385Z,6.18
2023-07-19T15:13:21.184Z,4.43
2023-07-19T15:15:49.164Z,4.60
2023-07-19T15:18:18.149Z,5.38
2023-07-19T15:20:48.827Z,6.13
2023-07-19T15:23:16.889Z,5.90
2023-07-19T15:25:44.559Z,6.18
2023-07-19T15:28:28.197Z,4.57
2023-07-19T15:30:59.415Z,4.65
2023-07-19T15:33:27.117Z,4.72
2023-07-19T15:35:54.736Z,5.43
2023-07-19T15:38:24.269Z,5.82
2023-07-19T15:40:52.821Z,5.18
2023-07-19T15:43:20.930Z,5.13
2023-07-19T15:45:48.644Z,4.55
2023-07-19T15:48:16.007Z,4.15
2023-07-19T15:50:44.824Z,4.15
2023-07-19T15:53:15.816Z,6.78
2023-07-19T15:55:43.532Z,4.93
2023-07-19T15:58:10.852Z,3.72
2023-07-19T16:00:38.711Z,5.00
2023-07-19T16:03:06.196Z,5.03
2023-07-19T16:05:34.089Z,4.88
2023-07-19T16:08:01.631Z,4.55
2023-07-19T16:10:29.328Z,4.78
2023-07-19T16:12:56.819Z,6.22
2023-07-19T16:15:24.417Z,6.63
2023-07-19T16:17:51.814Z,4.38
2023-07-19T16:20:19.668Z,3.90
2023-07-19T16:22:47.731Z,5.88
2023-07-19T16:25:16.006Z,4.25
2023-07-19T16:27:43.364Z,4.07
2023-07-19T16:30:11.384Z,6.30
2023-07-19T16:32:39.309Z,4.00
2023-07-19T16:35:07.089Z,4.72
2023-07-19T16:37:34.406Z,6.40
2023-07-19T16:40:02.766Z,4.95
2023-07-19T16:42:30.224Z,4.32
2023-07-19T16:44:57.848Z,6.35
2023-07-19T16:47:25.286Z,4.75
2023-07-19T16:49:52.941Z,4.15
2023-07-19T16:52:20.299Z,4.28
2023-07-19T16:54:47.955Z,4.60
2023-07-19T16:57:15.278Z,4.57
2023-07-19T16:59:42.910Z,8.45
2023-07-19T17:02:11.277Z,5.07
2023-07-19T17:04:38.934Z,3.67
2023-07-19T17:07:06.318Z,3.95
2023-07-19T17:09:34.209Z,5.05
2023-07-19T17:12:02.688Z,5.28
2023-07-19T17:14:30.418Z,5.03
2023-07-19T17:17:10.940Z,6.22
2023-07-19T17:19:40.651Z,7.78
2023-07-19T17:22:09.426Z,5.00
2023-07-19T17:24:37.356Z,4.63
2023-07-19T17:27:05.384Z,5.70
2023-07-19T17:29:33.218Z,4.57
2023-07-19T17:32:00.844Z,4.03
2023-07-19T17:34:28.563Z,4.63
2023-07-19T17:36:56.003Z,3.78
2023-07-19T17:39:23.878Z,5.68
2023-07-19T17:41:51.407Z,4.57
2023-07-19T17:44:19.091Z,3.47
2023-07-19T17:46:46.560Z,3.97
2023-07-19T17:49:14.238Z,4.28
2023-07-19T17:51:41.851Z,4.88
2023-07-19T17:54:09.460Z,4.75
2023-07-19T17:56:36.832Z,3.88
2023-07-19T17:59:04.507Z,4.05
2023-07-19T18:01:31.910Z,4.65
2023-07-19T18:03:59.631Z,5.20
2023-07-19T18:06:27.017Z,4.93
2023-07-19T18:08:54.624Z,4.20
2023-07-19T18:11:22.305Z,4.13
2023-07-19T18:13:50.445Z,3.25
2023-07-19T18:16:17.815Z,5.50
2023-07-19T18:18:45.461Z,5.65
2023-07-19T18:21:12.924Z,5.05
2023-07-19T18:23:41.068Z,6.30
2023-07-19T18:26:08.476Z,4.93
2023-07-19T18:28:36.323Z,6.18
2023-07-19T18:31:04.312Z,5.78
2023-07-19T18:33:32.485Z,4.50
2023-07-19T18:35:59.821Z,8.73
2023-07-19T18:38:27.443Z,9.75
2023-07-19T18:40:55.325Z,10.80
2023-07-19T18:43:22.999Z,11.27
2023-07-19T18:45:50.540Z,11.63
2023-07-19T18:48:18.466Z,14.38
2023-07-19T18:50:45.867Z,13.02
2023-07-19T18:53:13.486Z,13.98
2023-07-19T18:55:40.856Z,11.07
2023-07-19T18:58:08.612Z,11.68
2023-07-19T19:00:36.152Z,11.98
2023-07-19T19:03:04.387Z,13.82
2023-07-19T19:05:33.067Z,14.02
2023-07-19T19:08:00.686Z,12.00
2023-07-19T19:10:28.006Z,11.80
2023-07-19T19:12:55.606Z,9.85
2023-07-19T19:15:23.111Z,11.70
2023-07-19T19:17:50.820Z,9.45
2023-07-19T19:20:18.447Z,12.88
2023-07-19T19:22:46.186Z,12.23
2023-07-19T19:25:13.585Z,10.07
2023-07-19T19:27:41.354Z,11.20
2023-07-19T19:30:09.180Z,8.57
2023-07-19T19:32:37.123Z,9.25
2023-07-19T19:35:04.910Z,10.23
2023-07-19T19:37:32.735Z,10.93
2023-07-19T19:40:00.206Z,9.50
2023-07-19T19:42:30.059Z,11.35
2023-07-19T19:44:57.447Z,9.23
2023-07-19T19:47:25.069Z,9.55
2023-07-19T19:49:52.592Z,10.57
2023-07-19T19:52:21.088Z,10.02
2023-07-19T19:54:49.952Z,9.20
2023-07-19T19:57:18.033Z,9.18
2023-07-19T19:59:48.585Z,8.13
2023-07-19T20:04:46.911Z,8.88
2023-07-19T20:07:14.677Z,9.25
2023-07-19T20:09:55.668Z,12.90
2023-07-19T20:12:28.888Z,9.32
2023-07-19T20:14:56.457Z,7.45
2023-07-19T20:17:24.086Z,9.57
2023-07-19T20:19:54.204Z,12.38
2023-07-19T20:22:22.168Z,8.52
2023-07-19T20:24:57.869Z,9.68
2023-07-19T20:27:40.487Z,8.60
2023-07-19T20:30:10.543Z,7.57
2023-07-19T20:35:09.491Z,11.18
2023-07-19T20:37:39.357Z,12.05
2023-07-19T20:41:34.148Z,11.13
2023-07-19T20:42:57.440Z,9.57
2023-07-19T20:45:28.910Z,11.15
2023-07-19T20:48:01.571Z,8.15
2023-07-19T20:50:30.270Z,7.47
2023-07-19T20:52:57.957Z,9.93
2023-07-19T20:55:25.426Z,9.95
2023-07-19T20:57:53.174Z,8.90
2023-07-19T21:00:21.863Z,8.93
2023-07-19T21:02:49.694Z,11.35
2023-07-19T21:05:17.319Z,8.80
2023-07-19T21:07:44.957Z,8.00
2023-07-19T21:10:12.610Z,11.77
2023-07-19T21:12:40.351Z,11.27
2023-07-19T21:15:08.759Z,6.82
2023-07-19T21:17:36.559Z,8.85
2023-07-19T21:20:04.331Z,7.70
2023-07-19T21:22:32.127Z,8.20
2023-07-19T21:25:14.943Z,8.07
2023-07-19T21:27:43.096Z,8.13
2023-07-19T21:30:12.651Z,8.07
2023-07-19T21:32:41.062Z,8.55
2023-07-19T21:35:08.944Z,10.02
2023-07-19T21:37:37.935Z,9.68
2023-07-19T21:40:06.069Z,10.90
2023-07-19T21:42:34.016Z,7.95
2023-07-19T21:45:01.406Z,9.88
2023-07-19T21:47:29.145Z,7.50
2023-07-19T21:49:56.927Z,12.05
2023-07-19T21:52:25.841Z,10.38
2023-07-19T21:54:53.193Z,10.43
2023-07-19T21:57:20.798Z,10.35
2023-07-19T21:59:48.142Z,9.85
2023-07-19T22:02:15.732Z,8.65
2023-07-19T22:04:43.143Z,11.30
2023-07-19T22:08:14.317Z,10.00
2023-07-19T22:11:10.459Z,8.20
2023-07-19T22:13:40.308Z,10.90
2023-07-19T22:16:07.686Z,12.43
2023-07-19T22:18:35.401Z,12.43
2023-07-19T22:21:19.724Z,10.63
2023-07-19T22:23:48.888Z,10.15
2023-07-19T22:26:16.371Z,10.02
2023-07-19T22:28:44.089Z,11.95
2023-07-19T22:31:11.634Z,9.50
2023-07-19T22:33:39.374Z,10.32
2023-07-19T22:36:06.812Z,12.05
2023-07-19T22:38:34.464Z,8.48
2023-07-19T22:41:01.804Z,12.23
2023-07-19T22:43:29.708Z,9.70
2023-07-19T22:45:57.021Z,8.93
2023-07-19T22:48:24.686Z,9.40
2023-07-19T22:50:52.019Z,9.70
2023-07-19T22:53:19.705Z,9.93
2023-07-19T22:55:47.111Z,10.75
2023-07-19T22:58:14.762Z,12.38
2023-07-19T23:00:42.724Z,10.25
2023-07-19T23:03:10.475Z,10.60
2023-07-19T23:05:38.339Z,10.05
2023-07-19T23:08:05.953Z,9.45
2023-07-19T23:10:33.280Z,10.40
2023-07-19T23:13:00.885Z,9.20
2023-07-19T23:15:28.266Z,11.68
2023-07-19T23:17:55.905Z,8.55
2023-07-19T23:20:23.285Z,9.05
2023-07-19T23:22:50.963Z,8.35
2023-07-19T23:25:19.302Z,8.30
2023-07-19T23:27:47.011Z,8.82
2023-07-19T23:30:14.589Z,8.18
2023-07-19T23:32:42.191Z,8.80
2023-07-19T23:35:09.663Z,8.93
2023-07-19T23:37:37.339Z,10.48
2023-07-19T23:40:07.968Z,8.57
2023-07-19T23:42:35.637Z,9.35
2023-07-19T23:45:03.089Z,8.07
2023-07-19T23:47:30.858Z,8.70
2023-07-19T23:49:58.203Z,8.65
2023-07-19T23:52:25.801Z,8.13
2023-07-19T23:54:53.135Z,10.80
2023-07-19T23:57:20.737Z,8.80
2023-07-19T23:59:48.107Z,7.60
